Time;durP1;ratioP1;P1;durP2;ratioP2;P2;SDS_P1;SDS_P2;PMS_P1;PMS_P2;Temp;Humidity;BMP_temperature;BMP_pressure;BME280_temperature;BME280_humidity;BME280_pressure;Samples;Min_cycle;Max_cycle;Signal;HPM_P1;HPM_P2
2022/12/23 00:01:05;;;;;;;8.30;5.15;;;3.40;99.90;;;;;;5025125;28;20068;-72
2022/12/23 00:03:32;;;;;;;11.50;5.55;;;3.40;99.90;;;;;;5041272;28;20433;-72
2022/12/23 00:05:57;;;;;;;8.90;5.45;;;3.40;99.90;;;;;;5027798;28;20029;-72
2022/12/23 00:08:25;;;;;;;9.85;6.18;;;3.40;99.90;;;;;;5033266;28;20092;-72
2022/12/23 00:10:52;;;;;;;9.68;5.63;;;3.40;99.90;;;;;;5040328;28;20407;-72
2022/12/23 00:16:08;;;;;;;11.43;5.93;;;3.60;99.90;;;;;;5031200;28;20544;-72
2022/12/23 00:18:34;;;;;;;13.52;6.78;;;3.70;99.90;;;;;;5033147;28;20033;-72
2022/12/23 00:21:01;;;;;;;10.65;6.72;;;3.60;99.90;;;;;;5036986;28;20032;-72
2022/12/23 00:23:27;;;;;;;10.38;6.38;;;3.50;99.90;;;;;;5028756;28;20032;-72
2022/12/23 00:25:53;;;;;;;13.88;7.43;;;3.50;99.90;;;;;;5029220;28;20037;-72
2022/12/23 00:28:22;;;;;;;16.73;7.80;;;3.30;99.90;;;;;;5034928;28;20033;-72
2022/12/23 00:31:04;;;;;;;13.85;7.35;;;3.30;99.90;;;;;;5033707;28;20252;-72
2022/12/23 00:33:36;;;;;;;12.05;6.75;;;3.20;99.90;;;;;;5028606;28;20044;-72
2022/12/23 00:36:09;;;;;;;13.73;7.63;;;3.00;99.90;;;;;;5038093;28;20071;-72
2022/12/23 00:44:03;;;;;;;12.93;8.20;;;2.90;99.90;;;;;;5029793;28;20045;-72
2022/12/23 00:46:29;;;;;;;12.43;8.05;;;3.00;99.90;;;;;;5034531;28;20268;-72
2022/12/23 00:51:39;;;;;;;11.32;6.78;;;3.20;99.90;;;;;;5031422;28;20494;-72
2022/12/23 00:54:05;;;;;;;12.80;6.72;;;3.30;99.90;;;;;;5033579;28;20042;-72
2022/12/23 00:56:31;;;;;;;10.55;5.80;;;3.30;99.90;;;;;;5038541;28;20033;-72
2022/12/23 00:58:57;;;;;;;11.32;6.60;;;3.20;99.90;;;;;;5044244;28;20036;-72
2022/12/23 01:06:55;;;;;;;10.48;6.40;;;3.10;99.90;;;;;;5032628;28;20048;-72
2022/12/23 01:09:21;;;;;;;12.50;6.88;;;3.10;99.90;;;;;;5033279;28;20033;-72
2022/12/23 01:11:47;;;;;;;13.18;6.70;;;3.10;99.90;;;;;;5034260;28;20041;-72
2022/12/23 01:14:13;;;;;;;9.45;6.63;;;3.20;99.90;;;;;;5036701;28;20033;-72
2022/12/23 01:16:39;;;;;;;13.43;7.30;;;3.20;99.90;;;;;;5040670;28;20036;-72
2022/12/23 01:19:06;;;;;;;12.27;6.38;;;3.30;99.90;;;;;;5035543;28;20473;-72
2022/12/23 01:21:32;;;;;;;10.82;6.78;;;3.30;99.90;;;;;;5037498;28;20036;-72
2022/12/23 01:23:58;;;;;;;20.98;6.68;;;3.30;99.90;;;;;;5043872;28;20029;-72
2022/12/23 01:26:23;;;;;;;10.77;6.90;;;3.20;99.90;;;;;;5030753;28;20376;-72
2022/12/23 01:28:54;;;;;;;12.40;7.15;;;3.20;99.90;;;;;;5032589;28;20039;-72
2022/12/23 01:31:20;;;;;;;11.65;6.82;;;3.20;99.90;;;;;;5037933;28;20036;-72
2022/12/23 01:33:45;;;;;;;10.65;6.07;;;3.20;99.90;;;;;;5039716;28;20037;-72
2022/12/23 01:36:11;;;;;;;10.32;5.80;;;3.10;99.90;;;;;;5044426;28;20035;-72
2022/12/23 01:38:37;;;;;;;12.00;6.50;;;3.00;99.90;;;;;;5032806;28;20506;-72
2022/12/23 01:41:02;;;;;;;10.02;5.80;;;3.00;99.90;;;;;;5038316;28;20735;-72
2022/12/23 01:43:48;;;;;;;10.80;5.38;;;3.10;99.90;;;;;;5030499;28;20041;-72
2022/12/23 01:46:13;;;;;;;9.95;5.90;;;3.00;99.90;;;;;;5033391;28;20100;-72
2022/12/23 01:48:43;;;;;;;12.77;7.22;;;2.90;99.90;;;;;;5049645;28;20172;-72
2022/12/23 01:51:15;;;;;;;11.52;6.88;;;2.90;99.90;;;;;;5034490;28;20061;-72
2022/12/23 01:53:45;;;;;;;15.82;7.13;;;2.70;99.90;;;;;;5033876;28;20041;-72
2022/12/23 01:56:18;;;;;;;10.57;5.60;;;2.70;99.90;;;;;;5029348;28;20226;-72
2022/12/23 01:58:52;;;;;;;10.70;6.43;;;2.70;99.90;;;;;;5040986;28;20106;-72
2022/12/23 02:04:06;;;;;;;10.73;6.43;;;2.60;99.90;;;;;;5032704;28;20079;-72
2022/12/23 02:09:40;;;;;;;14.85;7.07;;;2.30;99.90;;;;;;4946689;28;20039;-72
2022/12/23 02:12:41;;;;;;;9.82;5.53;;;2.40;99.90;;;;;;4945347;28;20038;-72
2022/12/23 02:18:00;;;;;;;9.98;5.80;;;2.80;99.90;;;;;;5030741;28;20407;-72
2022/12/23 02:20:35;;;;;;;10.82;6.05;;;2.90;99.90;;;;;;5031766;28;20131;-72
2022/12/23 02:23:22;;;;;;;12.57;6.32;;;2.90;99.90;;;;;;5039225;28;20075;-72
2022/12/23 02:26:14;;;;;;;11.93;7.35;;;2.80;99.90;;;;;;5038971;28;20450;-72
2022/12/23 02:29:27;;;;;;;12.18;7.50;;;2.70;99.90;;;;;;5035334;28;20044;-72
2022/12/23 02:31:57;;;;;;;8.85;5.43;;;2.80;99.90;;;;;;4986834;28;20038;-72
2022/12/23 02:34:34;;;;;;;11.50;6.78;;;2.80;99.90;;;;;;4985143;28;20050;-72
2022/12/23 02:37:24;;;;;;;10.18;6.15;;;2.80;99.90;;;;;;5008259;28;20605;-72
2022/12/23 02:40:13;;;;;;;9.27;5.40;;;2.80;99.90;;;;;;5034418;28;20116;-72
2022/12/23 02:42:57;;;;;;;9.57;5.35;;;2.90;99.90;;;;;;5033385;28;20491;-72
2022/12/23 02:45:33;;;;;;;11.05;5.90;;;2.90;99.90;;;;;;5033360;28;20033;-72
2022/12/23 02:48:05;;;;;;;10.98;5.65;;;2.80;99.90;;;;;;5029000;28;22725;-72
2022/12/23 02:50:35;;;;;;;11.93;6.65;;;2.80;99.90;;;;;;5033149;28;20118;-72
2022/12/23 02:53:24;;;;;;;10.32;6.30;;;2.70;99.90;;;;;;5038919;28;20037;-72
2022/12/23 02:55:52;;;;;;;9.88;5.97;;;2.70;99.90;;;;;;5031583;28;20049;-72
2022/12/23 02:58:22;;;;;;;9.52;5.80;;;2.60;99.90;;;;;;5039301;28;20517;-72
2022/12/23 03:00:49;;;;;;;9.88;5.68;;;2.50;99.90;;;;;;5037208;28;20036;-72
2022/12/23 03:03:16;;;;;;;10.20;5.85;;;2.40;99.90;;;;;;5033029;28;20052;-72
2022/12/23 03:05:45;;;;;;;12.88;5.72;;;2.50;99.90;;;;;;5030765;28;20025;-72
2022/12/23 03:08:25;;;;;;;9.63;5.18;;;2.60;99.90;;;;;;5034422;28;20111;-72
2022/12/23 03:11:04;;;;;;;17.00;5.18;;;2.60;99.90;;;;;;5029796;28;20045;-72
2022/12/23 03:13:42;;;;;;;9.00;5.50;;;2.60;99.90;;;;;;5029886;28;20041;-72
2022/12/23 03:16:23;;;;;;;9.77;5.45;;;2.60;99.90;;;;;;5030033;28;20033;-72
2022/12/23 03:19:08;;;;;;;10.63;6.25;;;2.80;99.90;;;;;;5032763;28;20510;-72
2022/12/23 03:21:43;;;;;;;11.00;6.95;;;2.80;99.90;;;;;;5028609;28;20029;-72
2022/12/23 03:24:42;;;;;;;12.50;7.15;;;2.70;99.90;;;;;;5034572;28;20029;-72
2022/12/23 03:27:29;;;;;;;14.27;7.57;;;2.60;99.90;;;;;;5037765;28;20029;-72
2022/12/23 03:30:15;;;;;;;11.70;7.13;;;2.40;99.90;;;;;;5037829;28;20032;-72
2022/12/23 03:32:48;;;;;;;15.98;6.38;;;2.30;99.90;;;;;;5038705;28;20363;-72
2022/12/23 03:35:17;;;;;;;13.70;7.00;;;2.30;99.90;;;;;;5033039;28;20047;-72
2022/12/23 03:37:47;;;;;;;10.30;6.28;;;2.30;99.90;;;;;;5039872;28;20104;-72
2022/12/23 03:40:21;;;;;;;10.07;6.03;;;2.40;99.90;;;;;;5033683;28;20491;-72
2022/12/23 03:42:55;;;;;;;10.48;6.72;;;2.60;99.90;;;;;;5035944;28;20048;-72
2022/12/23 03:45:26;;;;;;;11.63;6.05;;;2.50;99.90;;;;;;5033198;28;20088;-72
2022/12/23 03:48:04;;;;;;;9.27;5.45;;;2.40;99.90;;;;;;5029960;28;20082;-72
2022/12/23 03:50:32;;;;;;;9.20;4.90;;;2.40;99.90;;;;;;5034118;28;20079;-72
2022/12/23 03:53:22;;;;;;;10.52;5.93;;;2.30;99.90;;;;;;5035238;28;20037;-72
2022/12/23 03:55:58;;;;;;;11.82;5.80;;;2.20;99.90;;;;;;5031818;28;20059;-72
2022/12/23 03:58:43;;;;;;;11.10;5.78;;;2.10;99.90;;;;;;5037116;28;20608;-72
2022/12/23 04:01:15;;;;;;;11.00;5.80;;;2.00;99.90;;;;;;5036679;28;20025;-70
2022/12/23 04:03:55;;;;;;;9.35;5.43;;;2.00;99.90;;;;;;5033884;28;20028;-70
2022/12/23 04:06:22;;;;;;;8.23;5.90;;;2.20;99.90;;;;;;5023054;28;20061;-70
2022/12/23 04:08:49;;;;;;;10.60;6.45;;;2.10;99.90;;;;;;5028837;28;20039;-70
2022/12/23 04:11:15;;;;;;;11.07;6.00;;;2.10;99.90;;;;;;5025528;28;20506;-70
2022/12/23 04:13:40;;;;;;;10.95;6.13;;;2.20;99.90;;;;;;5037734;28;20033;-71
2022/12/23 04:16:06;;;;;;;10.57;5.45;;;2.40;99.90;;;;;;5025454;28;20076;-70
2022/12/23 04:18:32;;;;;;;8.50;5.53;;;2.50;99.90;;;;;;5025165;28;20491;-70
2022/12/23 04:20:58;;;;;;;10.77;6.07;;;2.60;99.90;;;;;;5023644;28;20088;-70
2022/12/23 04:23:24;;;;;;;10.35;5.75;;;2.60;99.90;;;;;;5024075;28;20040;-70
2022/12/23 04:25:49;;;;;;;9.30;6.50;;;2.50;99.90;;;;;;5029139;28;20068;-70
2022/12/23 04:28:17;;;;;;;9.52;5.80;;;2.20;99.90;;;;;;5033035;28;20112;-70
2022/12/23 04:30:42;;;;;;;12.85;6.07;;;2.20;99.90;;;;;;5031257;28;20033;-70
2022/12/23 04:33:10;;;;;;;11.30;6.05;;;2.20;99.90;;;;;;5031398;28;20494;-70
2022/12/23 04:35:36;;;;;;;10.07;6.20;;;2.30;99.90;;;;;;5036455;28;20040;-71
2022/12/23 04:38:02;;;;;;;9.82;5.63;;;2.20;99.90;;;;;;5038656;28;20382;-70
2022/12/23 04:40:27;;;;;;;10.18;6.03;;;2.20;99.90;;;;;;5030617;28;21524;-70
2022/12/23 04:42:53;;;;;;;8.45;4.85;;;2.10;99.90;;;;;;5024288;28;20022;-70
2022/12/23 04:45:19;;;;;;;9.75;5.85;;;1.90;99.90;;;;;;5030966;28;20434;-70
2022/12/23 04:47:44;;;;;;;9.93;5.50;;;1.80;99.90;;;;;;5023933;28;20674;-70
2022/12/23 04:50:14;;;;;;;8.18;5.43;;;1.90;99.90;;;;;;5026407;28;20482;-70
2022/12/23 04:52:40;;;;;;;10.23;6.00;;;2.00;99.90;;;;;;5027310;28;20048;-70
2022/12/23 04:55:06;;;;;;;10.95;5.43;;;2.00;99.90;;;;;;5036993;28;20025;-70
2022/12/23 04:57:32;;;;;;;9.48;6.18;;;2.00;99.90;;;;;;5031114;28;20021;-70
2022/12/23 04:59:57;;;;;;;11.65;6.22;;;2.10;99.90;;;;;;5034115;28;20506;-70
2022/12/23 05:02:23;;;;;;;11.43;6.22;;;2.10;99.90;;;;;;5028401;28;20025;-70
2022/12/23 05:04:49;;;;;;;9.52;6.10;;;2.00;99.90;;;;;;5030415;28;20072;-70
2022/12/23 05:07:14;;;;;;;10.15;5.97;;;2.00;99.90;;;;;;5026038;28;21032;-70
2022/12/23 05:09:40;;;;;;;11.43;5.88;;;2.00;99.90;;;;;;5032475;28;20039;-70
2022/12/23 05:12:05;;;;;;;13.40;7.18;;;2.00;99.90;;;;;;5026978;28;20078;-70
2022/12/23 05:14:31;;;;;;;10.35;5.97;;;2.00;99.90;;;;;;5031085;28;20040;-71
2022/12/23 05:16:57;;;;;;;11.80;7.72;;;2.20;99.90;;;;;;5036036;28;20035;-71
2022/12/23 05:19:22;;;;;;;11.52;6.35;;;2.20;99.90;;;;;;5029963;28;20026;-70
2022/12/23 05:21:48;;;;;;;12.57;7.15;;;2.10;99.90;;;;;;5032943;28;20040;-71
2022/12/23 05:24:14;;;;;;;11.20;7.22;;;2.00;99.90;;;;;;5030082;28;20033;-70
2022/12/23 05:26:39;;;;;;;13.35;7.20;;;2.00;99.90;;;;;;5031009;28;20029;-70
2022/12/23 05:29:05;;;;;;;10.82;6.97;;;2.00;99.90;;;;;;5033489;28;20025;-70
2022/12/23 05:31:31;;;;;;;12.02;6.65;;;2.00;99.90;;;;;;5028160;28;20025;-70
2022/12/23 05:33:56;;;;;;;10.10;6.63;;;2.00;99.90;;;;;;5024033;28;20100;-70
2022/12/23 05:36:22;;;;;;;11.23;7.15;;;2.00;99.90;;;;;;5026856;28;20044;-70
2022/12/23 05:38:48;;;;;;;10.43;6.13;;;2.00;99.90;;;;;;5026825;28;20069;-70
2022/12/23 05:41:15;;;;;;;14.02;6.53;;;2.20;99.90;;;;;;5029520;28;20070;-70
2022/12/23 05:43:41;;;;;;;10.88;5.32;;;2.20;99.90;;;;;;5033567;28;20089;-70
2022/12/23 05:46:06;;;;;;;10.77;6.47;;;2.20;99.90;;;;;;5030922;28;20033;-70
2022/12/23 05:48:32;;;;;;;9.57;6.07;;;2.00;99.90;;;;;;5025687;28;20061;-70
2022/12/23 05:50:58;;;;;;;12.07;6.53;;;2.00;99.90;;;;;;5032295;28;20033;-70
2022/12/23 05:53:24;;;;;;;14.10;7.28;;;2.00;99.90;;;;;;5029966;28;20048;-70
2022/12/23 05:55:50;;;;;;;14.88;7.45;;;1.80;99.90;;;;;;5025187;28;20026;-70
2022/12/23 05:58:16;;;;;;;13.93;6.53;;;1.80;99.90;;;;;;5034370;28;20086;-70
2022/12/23 06:00:42;;;;;;;10.50;6.38;;;1.70;99.90;;;;;;5023826;28;20022;-71
2022/12/23 06:03:07;;;;;;;12.10;6.35;;;1.70;99.90;;;;;;5026590;28;20483;-71
2022/12/23 06:05:36;;;;;;;10.45;6.28;;;1.70;99.90;;;;;;5022587;28;20084;-70
2022/12/23 06:08:02;;;;;;;12.57;6.70;;;1.50;99.90;;;;;;5025859;28;20041;-71
2022/12/23 06:10:28;;;;;;;12.10;6.63;;;1.60;99.90;;;;;;5028134;28;20040;-70
2022/12/23 06:12:54;;;;;;;10.85;6.30;;;1.50;99.90;;;;;;5025565;28;20104;-70
2022/12/23 06:15:19;;;;;;;12.75;6.63;;;1.60;99.90;;;;;;5022614;28;20029;-70
2022/12/23 06:17:45;;;;;;;11.25;7.70;;;1.80;99.90;;;;;;5026488;28;20095;-70
2022/12/23 06:20:11;;;;;;;11.88;6.85;;;2.00;99.90;;;;;;5032778;28;20025;-70
2022/12/23 06:22:37;;;;;;;14.20;9.25;;;2.10;99.90;;;;;;5023889;28;20040;-70
2022/12/23 06:25:02;;;;;;;13.63;8.07;;;2.00;99.90;;;;;;5026376;28;20030;-70
2022/12/23 06:27:28;;;;;;;12.57;7.25;;;1.90;99.90;;;;;;5022860;28;20514;-70
2022/12/23 06:29:53;;;;;;;12.40;7.57;;;1.80;99.90;;;;;;5032430;28;20120;-70
2022/12/23 06:32:19;;;;;;;9.25;6.18;;;1.80;99.90;;;;;;5027001;28;20029;-70
2022/12/23 06:34:45;;;;;;;9.57;5.70;;;1.90;99.90;;;;;;5023937;28;20041;-70
2022/12/23 06:37:11;;;;;;;11.93;7.03;;;1.80;99.90;;;;;;5028212;28;20026;-70
2022/12/23 06:39:37;;;;;;;9.65;6.35;;;1.70;99.90;;;;;;5028145;28;20643;-72
2022/12/23 06:42:02;;;;;;;10.88;7.07;;;1.70;99.90;;;;;;5032657;28;20062;-72
2022/12/23 06:44:28;;;;;;;10.35;6.55;;;1.70;99.90;;;;;;5025195;28;20047;-72
2022/12/23 06:46:54;;;;;;;13.27;7.50;;;1.70;99.90;;;;;;5026021;28;20080;-72
2022/12/23 06:49:19;;;;;;;12.98;6.55;;;2.90;99.90;;;;;;5031132;28;20120;-72
2022/12/23 06:51:45;;;;;;;12.15;6.85;;;2.20;99.90;;;;;;5023768;28;20036;-72
2022/12/23 06:54:11;;;;;;;12.50;6.57;;;2.10;99.90;;;;;;5027481;28;20479;-72
2022/12/23 06:56:37;;;;;;;12.50;6.45;;;1.90;99.90;;;;;;5034557;28;20051;-71
2022/12/23 06:59:02;;;;;;;12.75;7.05;;;2.00;99.90;;;;;;5032699;28;20041;-72
2022/12/23 07:01:28;;;;;;;9.40;6.55;;;2.00;99.90;;;;;;5025627;28;20029;-72
2022/12/23 07:03:53;;;;;;;14.02;7.15;;;2.00;99.90;;;;;;5024510;28;20379;-71
2022/12/23 07:06:19;;;;;;;11.98;7.55;;;2.00;99.90;;;;;;5024136;28;20033;-72
2022/12/23 07:08:45;;;;;;;11.82;6.90;;;2.10;99.90;;;;;;5029721;28;20040;-71
2022/12/23 07:11:10;;;;;;;13.82;6.43;;;2.00;99.90;;;;;;5031506;28;20025;-71
2022/12/23 07:13:36;;;;;;;10.48;5.85;;;1.90;99.90;;;;;;5026978;28;20495;-71
2022/12/23 07:16:07;;;;;;;9.52;5.65;;;2.00;99.90;;;;;;5030179;28;20033;-72
2022/12/23 07:18:33;;;;;;;11.10;6.47;;;2.00;99.90;;;;;;5034202;28;20112;-73
2022/12/23 07:21:00;;;;;;;9.95;6.68;;;2.00;99.90;;;;;;5048181;28;20020;-73
2022/12/23 07:23:26;;;;;;;10.80;6.05;;;2.10;99.90;;;;;;5056822;28;20553;-73
2022/12/23 07:25:54;;;;;;;10.25;6.72;;;2.20;99.90;;;;;;5040850;28;20113;-73
2022/12/23 07:28:24;;;;;;;11.48;6.53;;;2.20;99.90;;;;;;5021774;28;20036;-73
2022/12/23 07:31:15;;;;;;;10.48;6.45;;;2.20;99.90;;;;;;5055429;28;20463;-73
2022/12/23 07:34:03;;;;;;;11.70;6.63;;;2.20;99.90;;;;;;5045803;28;20099;-73
2022/12/23 07:36:35;;;;;;;10.02;6.53;;;2.40;99.90;;;;;;5033608;28;20105;-73
2022/12/23 07:39:02;;;;;;;11.15;7.32;;;2.40;99.90;;;;;;5024569;28;20032;-73
2022/12/23 07:41:31;;;;;;;12.18;7.28;;;2.50;99.90;;;;;;5038846;28;20128;-74
2022/12/23 07:44:07;;;;;;;15.40;7.15;;;2.50;99.90;;;;;;5028358;28;20029;-74
2022/12/23 07:46:43;;;;;;;10.98;6.60;;;2.50;99.90;;;;;;5036963;28;20033;-74
2022/12/23 07:49:22;;;;;;;11.43;7.95;;;2.50;99.90;;;;;;5030870;28;20041;-74
2022/12/23 07:52:02;;;;;;;11.43;6.65;;;2.50;99.90;;;;;;5022265;28;20033;-74
2022/12/23 07:54:42;;;;;;;12.20;7.20;;;2.40;99.90;;;;;;5011203;28;20648;-74
2022/12/23 07:57:21;;;;;;;11.82;7.05;;;2.50;99.90;;;;;;5018805;28;20037;-76
2022/12/23 07:59:48;;;;;;;12.15;6.40;;;2.40;99.90;;;;;;5009762;28;20037;-73
2022/12/23 08:02:17;;;;;;;12.18;7.35;;;2.30;99.90;;;;;;5015364;28;20029;-73
2022/12/23 08:04:46;;;;;;;10.35;6.07;;;2.20;99.90;;;;;;5017859;28;20025;-74
2022/12/23 08:07:13;;;;;;;11.57;7.20;;;2.20;99.90;;;;;;5015084;28;20038;-74
2022/12/23 08:09:41;;;;;;;11.93;6.93;;;2.20;99.90;;;;;;5017128;28;20045;-73
2022/12/23 08:12:08;;;;;;;10.27;6.97;;;2.30;99.90;;;;;;5021099;28;20029;-73
2022/12/23 08:14:36;;;;;;;10.85;6.72;;;2.30;99.90;;;;;;5017015;28;20059;-73
2022/12/23 08:17:03;;;;;;;12.43;7.90;;;2.30;99.90;;;;;;5019741;28;20098;-73
2022/12/23 08:19:39;;;;;;;14.90;7.28;;;2.20;99.90;;;;;;5009010;28;20115;-73
2022/12/23 08:22:12;;;;;;;15.38;7.55;;;2.20;99.90;;;;;;5016976;28;20053;-77
2022/12/23 08:24:39;;;;;;;11.00;7.30;;;2.30;99.90;;;;;;5025454;28;20509;-75
2022/12/23 08:27:09;;;;;;;12.77;8.00;;;2.50;99.90;;;;;;5015134;28;20120;-74
2022/12/23 08:29:35;;;;;;;12.65;7.50;;;2.50;99.90;;;;;;5011100;28;20029;-75
2022/12/23 08:32:01;;;;;;;13.75;7.70;;;2.50;99.90;;;;;;5013370;28;20029;-74
2022/12/23 08:34:27;;;;;;;12.52;7.75;;;2.50;99.90;;;;;;5011734;28;20037;-75
2022/12/23 08:36:52;;;;;;;17.77;9.85;;;2.50;99.90;;;;;;5015994;28;20040;-74
2022/12/23 08:39:18;;;;;;;13.48;7.85;;;2.60;99.90;;;;;;5017343;28;20037;-74
2022/12/23 08:41:46;;;;;;;13.00;7.57;;;2.60;99.90;;;;;;5016394;28;20057;-74
2022/12/23 08:44:12;;;;;;;12.48;6.80;;;2.60;99.90;;;;;;5011314;28;20176;-74
2022/12/23 08:46:38;;;;;;;10.88;7.03;;;2.70;99.90;;;;;;4991533;28;23874;-75
2022/12/23 08:49:05;;;;;;;10.80;6.53;;;2.70;99.90;;;;;;5023643;28;20042;-75
2022/12/23 08:51:31;;;;;;;9.20;6.32;;;2.70;99.90;;;;;;5025837;28;20025;-75
2022/12/23 08:53:58;;;;;;;12.57;7.20;;;2.70;99.90;;;;;;5028889;28;20036;-75
2022/12/23 08:56:26;;;;;;;12.90;7.05;;;2.70;99.90;;;;;;5028826;28;20116;-75
2022/12/23 08:58:53;;;;;;;13.43;8.00;;;2.60;99.90;;;;;;5029132;28;20052;-75
2022/12/23 09:01:22;;;;;;;11.48;6.50;;;2.80;99.90;;;;;;5029912;28;20144;-75
2022/12/23 09:03:47;;;;;;;13.20;7.80;;;2.70;99.90;;;;;;5032000;28;20107;-75
2022/12/23 09:06:16;;;;;;;14.73;7.72;;;2.80;99.90;;;;;;5028934;28;20465;-75
2022/12/23 09:08:43;;;;;;;13.93;7.60;;;2.80;99.90;;;;;;5030487;28;20468;-75
2022/12/23 09:11:14;;;;;;;10.98;6.43;;;2.90;99.90;;;;;;5034177;28;20095;-75
2022/12/23 09:13:39;;;;;;;10.93;7.40;;;2.90;99.90;;;;;;5028837;28;20631;-75
2022/12/23 09:16:06;;;;;;;11.10;7.80;;;3.00;99.90;;;;;;5031728;28;20104;-75
2022/12/23 09:18:33;;;;;;;15.77;7.15;;;2.90;99.90;;;;;;5031951;28;20119;-75
2022/12/23 09:21:01;;;;;;;12.07;7.80;;;2.90;99.90;;;;;;5031073;28;20088;-75
2022/12/23 09:23:27;;;;;;;9.80;6.32;;;3.00;99.90;;;;;;5034167;28;20037;-75
2022/12/23 09:25:54;;;;;;;11.95;7.55;;;3.10;99.90;;;;;;5035816;28;20037;-75
2022/12/23 09:28:20;;;;;;;12.30;7.38;;;3.10;99.90;;;;;;5032544;28;20045;-75
2022/12/23 09:30:46;;;;;;;13.38;8.75;;;3.00;99.90;;;;;;5032579;28;20122;-76
2022/12/23 09:33:12;;;;;;;12.93;9.25;;;2.80;99.90;;;;;;5029279;28;20064;-75
2022/12/23 09:35:37;;;;;;;13.35;8.93;;;2.60;99.90;;;;;;5029005;28;20048;-75
2022/12/23 09:38:04;;;;;;;18.20;9.18;;;2.50;99.90;;;;;;5032073;28;20032;-75
2022/12/23 09:40:32;;;;;;;12.00;7.53;;;2.50;99.90;;;;;;5032435;28;20458;-75
2022/12/23 09:43:24;;;;;;;12.68;7.65;;;2.60;99.90;;;;;;5028161;28;20090;-75
2022/12/23 09:46:02;;;;;;;12.68;7.60;;;2.70;99.90;;;;;;4995422;28;20033;-74
2022/12/23 09:48:33;;;;;;;9.82;6.57;;;2.70;99.90;;;;;;4992062;28;1126164;-75
2022/12/23 09:50:59;;;;;;;11.45;6.28;;;2.70;99.90;;;;;;5037617;28;20037;-75
2022/12/23 09:53:46;;;;;;;10.63;6.25;;;2.70;99.90;;;;;;5030494;28;20152;-75
2022/12/23 09:56:18;;;;;;;9.85;5.90;;;2.80;99.90;;;;;;5031194;28;20048;-75
2022/12/23 09:59:15;;;;;;;10.32;6.72;;;2.90;99.90;;;;;;5030479;28;20083;-75
2022/12/23 10:01:48;;;;;;;22.85;14.02;;;3.00;99.90;;;;;;5027435;28;20491;-73
2022/12/23 10:04:34;;;;;;;27.40;14.95;;;2.90;99.90;;;;;;5030422;28;20496;-73
2022/12/23 10:07:03;;;;;;;26.83;13.80;;;2.70;99.90;;;;;;5031398;28;20036;-73
2022/12/23 10:09:35;;;;;;;21.83;13.07;;;2.80;99.90;;;;;;5034514;28;20064;-73
2022/12/23 10:12:17;;;;;;;20.95;13.20;;;2.60;99.90;;;;;;5028723;28;20098;-75
2022/12/23 10:14:45;;;;;;;20.35;12.07;;;2.60;99.90;;;;;;5031293;28;20049;-73
2022/12/23 10:17:19;;;;;;;19.88;12.23;;;2.60;99.90;;;;;;5028274;28;20021;-72
2022/12/23 10:19:47;;;;;;;19.00;11.57;;;2.60;99.90;;;;;;5026359;28;20636;-73
2022/12/23 10:22:13;;;;;;;16.52;10.52;;;2.60;99.90;;;;;;5022088;28;20037;-73
2022/12/23 10:24:41;;;;;;;19.38;11.95;;;2.60;99.90;;;;;;5003289;28;20051;-75
2022/12/23 10:27:10;;;;;;;18.60;11.98;;;2.50;99.90;;;;;;5034367;28;20036;-73
2022/12/23 10:29:36;;;;;;;17.70;12.05;;;2.40;99.90;;;;;;5023947;28;23696;-72
2022/12/23 10:32:24;;;;;;;12.77;8.15;;;2.50;99.90;;;;;;5031584;28;20112;-73
2022/12/23 10:35:19;;;;;;;15.52;9.55;;;2.80;99.90;;;;;;5028299;28;20037;-73
2022/12/23 10:37:52;;;;;;;18.70;10.52;;;2.70;99.90;;;;;;5038162;28;20133;-73
2022/12/23 10:40:40;;;;;;;20.15;10.48;;;2.80;99.90;;;;;;5028609;28;20430;-72
2022/12/23 10:43:33;;;;;;;12.63;7.57;;;2.80;99.90;;;;;;5033218;28;20029;-73
2022/12/23 10:46:26;;;;;;;12.45;8.00;;;2.90;99.90;;;;;;5028960;28;20025;-73
2022/12/23 10:48:57;;;;;;;11.40;7.13;;;2.90;99.90;;;;;;5031140;28;20518;-73
2022/12/23 10:51:28;;;;;;;12.00;7.63;;;3.00;99.90;;;;;;5025575;28;20036;-72
2022/12/23 10:54:02;;;;;;;15.02;9.23;;;3.10;99.90;;;;;;5024856;28;20090;-73
2022/12/23 10:56:29;;;;;;;16.65;9.40;;;3.20;99.90;;;;;;5029568;28;20057;-73
2022/12/23 10:58:58;;;;;;;21.17;12.20;;;3.30;99.90;;;;;;5032234;28;20059;-73
2022/12/23 11:01:24;;;;;;;16.10;9.98;;;3.50;99.90;;;;;;5027894;28;20037;-73
2022/12/23 11:04:15;;;;;;;15.82;9.95;;;3.70;99.90;;;;;;5028895;28;20108;-72
2022/12/23 11:06:45;;;;;;;13.80;7.57;;;3.90;99.90;;;;;;5022884;28;20380;-73
2022/12/23 11:09:24;;;;;;;14.77;8.57;;;4.00;99.90;;;;;;5019953;28;20035;-75
2022/12/23 11:12:14;;;;;;;16.52;8.85;;;4.50;99.90;;;;;;5021033;28;20030;-74
2022/12/23 11:14:52;;;;;;;17.08;9.48;;;4.40;99.90;;;;;;5028263;28;20148;-73
2022/12/23 11:17:26;;;;;;;23.95;12.85;;;4.40;99.90;;;;;;5021639;28;20033;-72
2022/12/23 11:20:04;;;;;;;;;;;4.50;99.90;;;;;;5025477;28;20029;-75
2022/12/23 11:22:30;;;;;;;25.52;16.15;;;4.80;99.90;;;;;;5027894;28;20493;-72
2022/12/23 11:25:25;;;;;;;17.80;10.85;;;5.00;99.90;;;;;;5031931;28;20104;-73
2022/12/23 11:28:00;;;;;;;18.38;12.25;;;4.80;99.90;;;;;;5026261;28;20029;-73
2022/12/23 11:30:28;;;;;;;17.05;9.70;;;4.90;99.90;;;;;;5037478;28;20055;-73
2022/12/23 11:32:53;;;;;;;16.70;10.27;;;5.00;99.90;;;;;;5035265;28;20075;-73
2022/12/23 11:35:28;;;;;;;17.92;10.95;;;5.00;99.90;;;;;;5032298;28;20041;-72
2022/12/23 11:37:55;;;;;;;14.55;9.27;;;5.00;99.90;;;;;;5020909;28;20149;-72
2022/12/23 11:40:45;;;;;;;15.75;9.45;;;5.10;99.90;;;;;;5035347;28;20037;-72
2022/12/23 11:43:14;;;;;;;14.80;9.50;;;5.30;99.90;;;;;;5027997;28;20031;-72
2022/12/23 11:45:40;;;;;;;16.63;9.73;;;5.40;99.90;;;;;;5028588;28;20041;-72
2022/12/23 11:48:24;;;;;;;16.60;10.05;;;5.30;99.90;;;;;;5032338;28;20052;-73
2022/12/23 11:50:59;;;;;;;15.93;9.48;;;5.40;99.90;;;;;;5024221;28;20028;-73
2022/12/23 11:53:24;;;;;;;;;;;5.60;99.90;;;;;;5027029;28;20658;-72
2022/12/23 11:55:59;;;;;;;13.85;8.10;;;5.70;99.90;;;;;;5030131;28;19951;-72
2022/12/23 11:58:28;;;;;;;16.25;10.02;;;5.70;99.90;;;;;;5036014;28;20039;-73
2022/12/23 12:00:57;;;;;;;14.35;10.30;;;6.00;99.90;;;;;;5029751;28;20053;-73
2022/12/23 12:03:28;;;;;;;13.95;8.00;;;6.10;99.90;;;;;;5028390;28;20120;-72
2022/12/23 12:05:58;;;;;;;12.07;7.20;;;6.20;99.90;;;;;;5030911;28;20028;-72
2022/12/23 12:08:30;;;;;;;15.20;9.18;;;6.00;99.90;;;;;;5038675;28;20093;-72
2022/12/23 12:11:06;;;;;;;13.95;7.78;;;6.10;99.90;;;;;;5032626;28;20021;-72
2022/12/23 12:13:41;;;;;;;12.00;7.50;;;6.10;99.90;;;;;;5031597;28;20117;-74
2022/12/23 12:16:17;;;;;;;;;;;6.10;99.90;;;;;;5028957;28;20079;-74
2022/12/23 12:18:45;;;;;;;17.25;9.60;;;6.20;99.90;;;;;;5022617;28;19952;-74
2022/12/23 12:21:15;;;;;;;26.70;16.45;;;6.40;99.90;;;;;;5031901;28;20029;-71
2022/12/23 12:23:45;;;;;;;21.30;12.35;;;6.30;99.90;;;;;;5034129;28;20029;-74
2022/12/23 12:26:25;;;;;;;13.88;8.57;;;6.50;99.90;;;;;;5033381;28;20671;-72
2022/12/23 12:28:59;;;;;;;12.57;7.15;;;6.50;99.90;;;;;;5008011;28;20032;-72
2022/12/23 12:31:32;;;;;;;14.93;7.93;;;6.30;99.90;;;;;;5030353;28;20025;-71
2022/12/23 12:34:03;;;;;;;9.88;6.32;;;6.30;99.90;;;;;;5036098;28;20379;-74
2022/12/23 12:36:49;;;;;;;11.75;6.75;;;6.30;99.90;;;;;;5027114;28;20112;-74
2022/12/23 12:39:26;;;;;;;9.80;5.95;;;6.40;99.90;;;;;;5027732;28;20753;-71
2022/12/23 12:42:01;;;;;;;8.70;5.60;;;6.50;99.90;;;;;;5031577;28;20033;-73
2022/12/23 12:44:42;;;;;;;11.80;6.15;;;6.60;99.90;;;;;;5026411;28;20059;-71
2022/12/23 12:47:30;;;;;;;9.88;5.75;;;6.70;99.90;;;;;;5031338;28;20046;-74
2022/12/23 12:50:00;;;;;;;9.07;5.60;;;6.80;99.90;;;;;;5029358;28;20159;-74
2022/12/23 12:52:27;;;;;;;10.02;6.63;;;6.60;99.90;;;;;;5029717;28;20048;-71
2022/12/23 12:55:02;;;;;;;18.90;7.63;;;6.60;99.90;;;;;;5027924;28;20034;-71
2022/12/23 12:57:30;;;;;;;13.23;8.57;;;6.40;99.90;;;;;;5027565;28;20029;-72
2022/12/23 12:59:58;;;;;;;10.93;7.25;;;6.30;99.90;;;;;;5031061;28;20116;-74
2022/12/23 13:02:26;;;;;;;11.77;7.70;;;6.20;99.90;;;;;;5027837;28;21163;-72
2022/12/23 13:05:14;;;;;;;14.30;8.50;;;6.30;99.90;;;;;;5029341;28;20470;-71
2022/12/23 13:08:01;;;;;;;12.35;8.32;;;6.40;99.90;;;;;;5023937;28;20029;-71
2022/12/23 13:10:56;;;;;;;13.07;7.28;;;6.30;99.90;;;;;;5032033;28;20029;-73
2022/12/23 13:13:38;;;;;;;14.07;8.55;;;6.40;99.90;;;;;;5029871;28;20622;-72
2022/12/23 13:16:22;;;;;;;12.18;7.80;;;6.60;99.90;;;;;;5038281;28;20024;-73
2022/12/23 13:18:54;;;;;;;11.85;7.20;;;6.60;99.90;;;;;;5030486;28;20041;-72
2022/12/23 13:21:20;;;;;;;10.07;7.13;;;6.60;99.90;;;;;;5035052;28;20514;-72
2022/12/23 13:23:59;;;;;;;10.90;6.45;;;6.60;99.90;;;;;;5034351;28;20028;-73
2022/12/23 13:26:36;;;;;;;13.45;7.03;;;6.50;99.90;;;;;;5036996;28;20499;-72
2022/12/23 13:29:38;;;;;;;13.13;7.10;;;6.40;99.90;;;;;;5032496;28;20166;-72
2022/12/23 13:32:43;;;;;;;10.93;6.45;;;6.50;99.90;;;;;;5036230;28;20528;-73
2022/12/23 13:35:31;;;;;;;11.88;6.72;;;6.50;99.90;;;;;;5030029;28;20080;-73